logo
Search for airport 
image banner adimage banner adimage banner ad
image banner ad

HKKU - Kurungu

Located in , Kenya

ICAO - HKKU, IATA -

Data provided by Airmate  

General information

Coordinates: N2°13'50" E35°40'3"
Elevation is 3790 feet MSL.
 
View others Airports in Eastern Province

Operational data

Special qualification required
Current time UTC:
Current local time:
Weather at : - ( 0 km )
METAR: KMYP 230424Z AUTO 28018KT 10SM BKN065 OVC075 02/M07 A3038 RMK AO2
View NOTAMs / SUP AIP / TFR affecting this airport [VIEW]
Communications frequencies: [VIEW]

Runways:

RWY identifierQFULength (ft)Width (ft)SurfaceLDA (ft)
0100UNK
1900UNK

Airport contact information

Address: Kenya

Satellite view of HKKU